SVA1030 OEJN-OERK
Flight info
| Callsign | SVA1030 |
|---|---|
| Flight time | N/A |
| Altitude | 37000 |
| Route | EGREP T532 ORDEM |
| Aircraft | A321/M-SDE3FGHIRWY/LB1 |
Departure
| Time | 2026-04-29 10:56 |
|---|---|
| Airport | King Abdulaziz International Airport (OEJN) |
Arrival
| Time | N/A |
|---|---|
| Airport | King Khalid International Airport (OERK) |
| Time | Latitude | Longitude | Altitude | Speed | Heading |
|---|---|---|---|---|---|
| 2026-04-29 10:24 | 21.66682 | 39.17230 | 31 ft | 0 kts | 250° |
| 2026-04-29 10:46 | 21.66683 | 39.17233 | 30 ft | 3 kts | 250° |
| 2026-04-29 10:46 | 21.66692 | 39.17260 | 30 ft | 4 kts | 250° |
| 2026-04-29 10:46 | 21.66702 | 39.17287 | 30 ft | 4 kts | 250° |
| 2026-04-29 10:46 | 21.66709 | 39.17310 | 30 ft | 4 kts | 243° |
| 2026-04-29 10:47 | 21.66725 | 39.17321 | 30 ft | 4 kts | 171° |
| 2026-04-29 10:47 | 21.66749 | 39.17313 | 30 ft | 4 kts | 160° |
| 2026-04-29 10:47 | 21.66764 | 39.17307 | 30 ft | 0 kts | 159° |
| 2026-04-29 10:50 | 21.66759 | 39.17309 | 30 ft | 4 kts | 159° |
| 2026-04-29 10:50 | 21.66694 | 39.17335 | 30 ft | 14 kts | 160° |
| 2026-04-29 10:50 | 21.66606 | 39.17370 | 30 ft | 13 kts | 160° |
| 2026-04-29 10:51 | 21.66529 | 39.17422 | 30 ft | 13 kts | 128° |
| 2026-04-29 10:51 | 21.66476 | 39.17500 | 30 ft | 13 kts | 116° |
| 2026-04-29 10:51 | 21.66453 | 39.17590 | 30 ft | 12 kts | 105° |
| 2026-04-29 10:51 | 21.66439 | 39.17678 | 30 ft | 12 kts | 100° |
| 2026-04-29 10:52 | 21.66440 | 39.17758 | 30 ft | 11 kts | 48° |
| 2026-04-29 10:52 | 21.66508 | 39.17767 | 30 ft | 11 kts | 351° |
| 2026-04-29 10:52 | 21.66576 | 39.17784 | 30 ft | 11 kts | 48° |
| 2026-04-29 10:52 | 21.66603 | 39.17853 | 32 ft | 9 kts | 69° |
| 2026-04-29 10:53 | 21.66618 | 39.17898 | 32 ft | 0 kts | 69° |
| 2026-04-29 10:53 | 21.66625 | 39.17916 | 32 ft | 11 kts | 69° |
| 2026-04-29 10:54 | 21.66677 | 39.18037 | 32 ft | 12 kts | 31° |
| 2026-04-29 10:54 | 21.66729 | 39.18017 | 32 ft | 8 kts | 338° |
| 2026-04-29 10:54 | 21.66777 | 39.17996 | 32 ft | 7 kts | 338° |
| 2026-04-29 10:54 | 21.66819 | 39.17978 | 33 ft | 6 kts | 338° |
| 2026-04-29 10:55 | 21.66873 | 39.17958 | 34 ft | 19 kts | 341° |
| 2026-04-29 10:55 | 21.67218 | 39.17827 | 30 ft | 84 kts | 340° |
| 2026-04-29 10:55 | 21.67933 | 39.17545 | 35 ft | 133 kts | 340° |
| 2026-04-29 10:55 | 21.68924 | 39.17156 | 106 ft | 163 kts | 340° |
| 2026-04-29 10:56 | 21.69981 | 39.16739 | 730 ft | 163 kts | 339° |
| 2026-04-29 10:56 | 21.71054 | 39.16352 | 1260 ft | 163 kts | 346° |
| 2026-04-29 10:56 | 21.72222 | 39.16123 | 1460 ft | 180 kts | 347° |
| 2026-04-29 10:56 | 21.73498 | 39.15905 | 1743 ft | 190 kts | 354° |
| 2026-04-29 10:57 | 21.74786 | 39.16335 | 1912 ft | 213 kts | 35° |
| 2026-04-29 10:57 | 21.75830 | 39.17597 | 2082 ft | 240 kts | 45° |
| 2026-04-29 10:57 | 21.77062 | 39.18888 | 2477 ft | 252 kts | 33° |
| 2026-04-29 10:57 | 21.78516 | 39.19982 | 3096 ft | 258 kts | 30° |
| 2026-04-29 10:58 | 21.80057 | 39.21015 | 3689 ft | 265 kts | 28° |
| 2026-04-29 10:58 | 21.81657 | 39.22062 | 4238 ft | 275 kts | 28° |
| 2026-04-29 10:58 | 21.83322 | 39.23163 | 4756 ft | 285 kts | 30° |
| 2026-04-29 10:58 | 21.85023 | 39.24315 | 5357 ft | 290 kts | 31° |
| 2026-04-29 10:59 | 21.86736 | 39.25497 | 5956 ft | 295 kts | 32° |
| 2026-04-29 10:59 | 21.88478 | 39.26712 | 6569 ft | 300 kts | 32° |
| 2026-04-29 10:59 | 21.90206 | 39.27924 | 7209 ft | 301 kts | 32° |
| 2026-04-29 10:59 | 21.91966 | 39.29165 | 7856 ft | 304 kts | 32° |
| 2026-04-29 11:00 | 21.93743 | 39.30419 | 8486 ft | 307 kts | 32° |
| 2026-04-29 11:00 | 21.95543 | 39.31655 | 9175 ft | 308 kts | 30° |
| 2026-04-29 11:00 | 21.97377 | 39.32872 | 9828 ft | 310 kts | 28° |
| 2026-04-29 11:00 | 21.99244 | 39.34092 | 10207 ft | 322 kts | 29° |
| 2026-04-29 11:01 | 22.01222 | 39.35379 | 10319 ft | 342 kts | 29° |
| 2026-04-29 11:01 | 22.03306 | 39.36745 | 10496 ft | 358 kts | 29° |
| 2026-04-29 11:01 | 22.05455 | 39.38163 | 10916 ft | 365 kts | 30° |
| 2026-04-29 11:01 | 22.07625 | 39.39600 | 11422 ft | 369 kts | 30° |
| 2026-04-29 11:02 | 22.09793 | 39.41039 | 11943 ft | 373 kts | 30° |
| 2026-04-29 11:02 | 22.12012 | 39.42514 | 12447 ft | 377 kts | 30° |
| 2026-04-29 11:02 | 22.14259 | 39.44006 | 12942 ft | 382 kts | 30° |
| 2026-04-29 11:02 | 22.16533 | 39.45516 | 13447 ft | 386 kts | 30° |
| 2026-04-29 11:03 | 22.18049 | 39.46523 | 13775 ft | 389 kts | 30° |
| 2026-04-29 11:03 | 22.21152 | 39.48584 | 14377 ft | 393 kts | 29° |
| 2026-04-29 11:03 | 22.23487 | 39.50135 | 14852 ft | 396 kts | 29° |
| 2026-04-29 11:03 | 22.25845 | 39.51698 | 15324 ft | 399 kts | 28° |
| 2026-04-29 11:04 | 22.28219 | 39.53269 | 15792 ft | 402 kts | 28° |
| 2026-04-29 11:04 | 22.30522 | 39.54933 | 16232 ft | 407 kts | 36° |
| 2026-04-29 11:04 | 22.32572 | 39.57067 | 16662 ft | 413 kts | 48° |
| 2026-04-29 11:04 | 22.34230 | 39.59616 | 17090 ft | 418 kts | 59° |
| 2026-04-29 11:05 | 22.35637 | 39.62379 | 17512 ft | 421 kts | 60° |
| 2026-04-29 11:05 | 22.37058 | 39.65160 | 17941 ft | 424 kts | 59° |
| 2026-04-29 11:05 | 22.38494 | 39.67953 | 18351 ft | 427 kts | 59° |
| 2026-04-29 11:05 | 22.39945 | 39.70764 | 18686 ft | 430 kts | 59° |
| 2026-04-29 11:06 | 22.41405 | 39.73588 | 19035 ft | 431 kts | 59° |
| 2026-04-29 11:06 | 22.42849 | 39.76386 | 19442 ft | 432 kts | 59° |
| 2026-04-29 11:06 | 22.44311 | 39.79229 | 19814 ft | 434 kts | 59° |
| 2026-04-29 11:06 | 22.45839 | 39.82037 | 20063 ft | 435 kts | 53° |
| 2026-04-29 11:07 | 22.47732 | 39.84582 | 20356 ft | 434 kts | 43° |
| 2026-04-29 11:07 | 22.49955 | 39.86803 | 20690 ft | 434 kts | 38° |
| 2026-04-29 11:07 | 22.52225 | 39.88957 | 21042 ft | 435 kts | 37° |
| 2026-04-29 11:07 | 22.54499 | 39.91123 | 21386 ft | 436 kts | 38° |
| 2026-04-29 11:08 | 22.56775 | 39.93299 | 21738 ft | 437 kts | 38° |
| 2026-04-29 11:08 | 22.59060 | 39.95480 | 22088 ft | 439 kts | 37° |
| 2026-04-29 11:08 | 22.61343 | 39.97659 | 22431 ft | 440 kts | 37° |
| 2026-04-29 11:08 | 22.63611 | 39.99829 | 22777 ft | 442 kts | 37° |
| 2026-04-29 11:09 | 22.65913 | 40.02037 | 23108 ft | 443 kts | 37° |
| 2026-04-29 11:09 | 22.68226 | 40.04252 | 23410 ft | 445 kts | 37° |
| 2026-04-29 11:09 | 22.70564 | 40.06487 | 23676 ft | 448 kts | 37° |
| 2026-04-29 11:09 | 22.72905 | 40.08723 | 23938 ft | 451 kts | 37° |
| 2026-04-29 11:10 | 22.75261 | 40.10980 | 24171 ft | 454 kts | 37° |
| 2026-04-29 11:10 | 22.77626 | 40.13250 | 24403 ft | 457 kts | 37° |
| 2026-04-29 11:10 | 22.80011 | 40.15541 | 24602 ft | 460 kts | 37° |
| 2026-04-29 11:10 | 22.82378 | 40.17815 | 24830 ft | 462 kts | 37° |
| 2026-04-29 11:11 | 22.84793 | 40.20133 | 25058 ft | 465 kts | 37° |
| 2026-04-29 11:11 | 22.87223 | 40.22464 | 25267 ft | 468 kts | 37° |
| 2026-04-29 11:11 | 22.89668 | 40.24811 | 25500 ft | 471 kts | 37° |
| 2026-04-29 11:11 | 22.92131 | 40.27179 | 25653 ft | 476 kts | 37° |
| 2026-04-29 11:12 | 22.94617 | 40.29573 | 25811 ft | 480 kts | 37° |
| 2026-04-29 11:12 | 22.97119 | 40.31986 | 26001 ft | 483 kts | 37° |
| 2026-04-29 11:12 | 22.99634 | 40.34414 | 26204 ft | 485 kts | 37° |
| 2026-04-29 11:12 | 23.02164 | 40.36853 | 26400 ft | 488 kts | 37° |
| 2026-04-29 11:13 | 23.04674 | 40.39270 | 26579 ft | 490 kts | 37° |
| 2026-04-29 11:13 | 23.07225 | 40.41725 | 26762 ft | 492 kts | 37° |
| 2026-04-29 11:13 | 23.09802 | 40.44205 | 26972 ft | 495 kts | 37° |
| 2026-04-29 11:13 | 23.12394 | 40.46700 | 27138 ft | 498 kts | 37° |
| 2026-04-29 11:14 | 23.14990 | 40.49205 | 27293 ft | 501 kts | 37° |
| 2026-04-29 11:14 | 23.17598 | 40.51723 | 27449 ft | 503 kts | 37° |
| 2026-04-29 11:14 | 23.20216 | 40.54262 | 27615 ft | 505 kts | 37° |
| 2026-04-29 11:14 | 23.22840 | 40.56809 | 27793 ft | 507 kts | 37° |
| 2026-04-29 11:15 | 23.25362 | 40.59503 | 27936 ft | 514 kts | 45° |
| 2026-04-29 11:15 | 23.27508 | 40.62569 | 28121 ft | 520 kts | 55° |
| 2026-04-29 11:15 | 23.29255 | 40.66032 | 28250 ft | 525 kts | 65° |
| 2026-04-29 11:15 | 23.30599 | 40.69746 | 28382 ft | 528 kts | 69° |
| 2026-04-29 11:16 | 23.31895 | 40.73499 | 28530 ft | 530 kts | 69° |
| 2026-04-29 11:16 | 23.33197 | 40.77250 | 28682 ft | 532 kts | 69° |
| 2026-04-29 11:16 | 23.34511 | 40.81026 | 28829 ft | 534 kts | 69° |
| 2026-04-29 11:16 | 23.35834 | 40.84814 | 28980 ft | 536 kts | 69° |
| 2026-04-29 11:17 | 23.37158 | 40.88618 | 29125 ft | 538 kts | 69° |
| 2026-04-29 11:17 | 23.38464 | 40.92384 | 29249 ft | 540 kts | 69° |
| 2026-04-29 11:17 | 23.39789 | 40.96204 | 29419 ft | 541 kts | 69° |
| 2026-04-29 11:17 | 23.41115 | 41.00044 | 29561 ft | 543 kts | 69° |
| 2026-04-29 11:18 | 23.42442 | 41.03897 | 29693 ft | 544 kts | 69° |
| 2026-04-29 11:18 | 23.43773 | 41.07761 | 29829 ft | 546 kts | 69° |
| 2026-04-29 11:18 | 23.45107 | 41.11634 | 29948 ft | 547 kts | 69° |
| 2026-04-29 11:18 | 23.46443 | 41.15516 | 30065 ft | 548 kts | 69° |
| 2026-04-29 11:19 | 23.47781 | 41.19406 | 30173 ft | 549 kts | 69° |
| 2026-04-29 11:19 | 23.49123 | 41.23309 | 30287 ft | 549 kts | 69° |
| 2026-04-29 11:19 | 23.50465 | 41.27210 | 30397 ft | 550 kts | 69° |
| 2026-04-29 11:19 | 23.51784 | 41.31044 | 30502 ft | 550 kts | 69° |
| 2026-04-29 11:20 | 23.53132 | 41.34957 | 30618 ft | 551 kts | 69° |
| 2026-04-29 11:20 | 23.54474 | 41.38860 | 30734 ft | 551 kts | 69° |
| 2026-04-29 11:20 | 23.55818 | 41.42785 | 30843 ft | 552 kts | 69° |
| 2026-04-29 11:20 | 23.57156 | 41.46709 | 30955 ft | 552 kts | 69° |
| 2026-04-29 11:21 | 23.58494 | 41.50637 | 31080 ft | 553 kts | 69° |
| 2026-04-29 11:21 | 23.59831 | 41.54556 | 31199 ft | 553 kts | 69° |
| 2026-04-29 11:21 | 23.61169 | 41.58482 | 31335 ft | 552 kts | 69° |
| 2026-04-29 11:21 | 23.62506 | 41.62400 | 31509 ft | 551 kts | 69° |
| 2026-04-29 11:22 | 23.63828 | 41.66273 | 31666 ft | 550 kts | 69° |
| 2026-04-29 11:22 | 23.65155 | 41.70170 | 31822 ft | 549 kts | 69° |
| 2026-04-29 11:22 | 23.66480 | 41.74077 | 31983 ft | 550 kts | 69° |
| 2026-04-29 11:22 | 23.67797 | 41.77993 | 32104 ft | 550 kts | 70° |
| 2026-04-29 11:23 | 23.69081 | 41.81918 | 32267 ft | 549 kts | 71° |
| 2026-04-29 11:23 | 23.70331 | 41.85849 | 32428 ft | 548 kts | 71° |
| 2026-04-29 11:23 | 23.71561 | 41.89792 | 32584 ft | 547 kts | 71° |
| 2026-04-29 11:23 | 23.72781 | 41.93725 | 32762 ft | 547 kts | 71° |
| 2026-04-29 11:24 | 23.74006 | 41.97656 | 32917 ft | 546 kts | 71° |
| 2026-04-29 11:24 | 23.75232 | 42.01513 | 33069 ft | 545 kts | 70° |
| 2026-04-29 11:24 | 23.76525 | 42.05390 | 33267 ft | 544 kts | 70° |
| 2026-04-29 11:24 | 23.77864 | 42.09263 | 33449 ft | 543 kts | 69° |
| 2026-04-29 11:25 | 23.78319 | 42.10556 | 33506 ft | 543 kts | 69° |